sensor_id;sensor_type;location;lat;lon;timestamp;temperature;humidity
4425;DHT22;2225;53.568;13.266;2022-12-29T00:00:16;11.60;96.20
4425;DHT22;2225;53.568;13.266;2022-12-29T00:02:43;11.60;96.30
4425;DHT22;2225;53.568;13.266;2022-12-29T00:05:10;11.60;96.30
4425;DHT22;2225;53.568;13.266;2022-12-29T00:07:37;11.60;96.30
4425;DHT22;2225;53.568;13.266;2022-12-29T00:10:05;11.60;96.30
4425;DHT22;2225;53.568;13.266;2022-12-29T00:12:32;11.70;96.30
4425;DHT22;2225;53.568;13.266;2022-12-29T00:15:19;11.60;96.30
4425;DHT22;2225;53.568;13.266;2022-12-29T00:18:05;11.60;96.30
4425;DHT22;2225;53.568;13.266;2022-12-29T00:20:36;11.70;96.30
4425;DHT22;2225;53.568;13.266;2022-12-29T00:23:22;11.70;96.40
4425;DHT22;2225;53.568;13.266;2022-12-29T00:26:15;11.70;96.40
4425;DHT22;2225;53.568;13.266;2022-12-29T00:29:02;11.70;96.40
4425;DHT22;2225;53.568;13.266;2022-12-29T00:31:48;11.70;96.40
4425;DHT22;2225;53.568;13.266;2022-12-29T00:34:33;11.70;96.40
4425;DHT22;2225;53.568;13.266;2022-12-29T00:37:19;11.70;96.50
4425;DHT22;2225;53.568;13.266;2022-12-29T00:40:06;11.70;96.50
4425;DHT22;2225;53.568;13.266;2022-12-29T00:42:52;11.70;96.50
4425;DHT22;2225;53.568;13.266;2022-12-29T00:45:40;11.70;96.50
4425;DHT22;2225;53.568;13.266;2022-12-29T00:48:08;11.70;96.50
4425;DHT22;2225;53.568;13.266;2022-12-29T00:50:35;11.70;96.50
4425;DHT22;2225;53.568;13.266;2022-12-29T00:53:02;11.70;96.50
4425;DHT22;2225;53.568;13.266;2022-12-29T00:55:29;11.70;96.60
4425;DHT22;2225;53.568;13.266;2022-12-29T00:57:56;11.60;96.60
4425;DHT22;2225;53.568;13.266;2022-12-29T01:00:23;11.70;96.70
4425;DHT22;2225;53.568;13.266;2022-12-29T01:02:50;11.60;96.70
4425;DHT22;2225;53.568;13.266;2022-12-29T01:05:17;11.60;96.70
4425;DHT22;2225;53.568;13.266;2022-12-29T01:07:44;11.70;96.70
4425;DHT22;2225;53.568;13.266;2022-12-29T01:10:11;11.60;96.70
4425;DHT22;2225;53.568;13.266;2022-12-29T01:12:38;11.70;96.70
4425;DHT22;2225;53.568;13.266;2022-12-29T01:15:13;11.70;96.70
4425;DHT22;2225;53.568;13.266;2022-12-29T01:17:41;11.70;96.70
4425;DHT22;2225;53.568;13.266;2022-12-29T01:20:09;11.70;96.70
4425;DHT22;2225;53.568;13.266;2022-12-29T01:22:37;11.70;96.70
4425;DHT22;2225;53.568;13.266;2022-12-29T01:25:05;11.80;96.70
4425;DHT22;2225;53.568;13.266;2022-12-29T01:27:33;11.80;96.70
4425;DHT22;2225;53.568;13.266;2022-12-29T01:29:59;11.80;96.60
4425;DHT22;2225;53.568;13.266;2022-12-29T01:32:26;11.80;96.60
4425;DHT22;2225;53.568;13.266;2022-12-29T01:34:53;11.80;96.60
4425;DHT22;2225;53.568;13.266;2022-12-29T01:37:20;11.80;96.70
4425;DHT22;2225;53.568;13.266;2022-12-29T01:39:47;11.80;96.60
4425;DHT22;2225;53.568;13.266;2022-12-29T01:42:19;11.80;97.00
4425;DHT22;2225;53.568;13.266;2022-12-29T01:44:52;11.80;96.80
4425;DHT22;2225;53.568;13.266;2022-12-29T01:47:31;11.80;96.80
4425;DHT22;2225;53.568;13.266;2022-12-29T01:50:26;11.80;96.80
4425;DHT22;2225;53.568;13.266;2022-12-29T01:53:08;11.80;96.80
4425;DHT22;2225;53.568;13.266;2022-12-29T01:56:00;11.80;96.90
4425;DHT22;2225;53.568;13.266;2022-12-29T01:58:32;11.80;96.80
4425;DHT22;2225;53.568;13.266;2022-12-29T02:01:01;11.80;96.90
4425;DHT22;2225;53.568;13.266;2022-12-29T02:03:28;11.80;96.90
4425;DHT22;2225;53.568;13.266;2022-12-29T02:06:11;11.80;96.80
4425;DHT22;2225;53.568;13.266;2022-12-29T02:08:43;11.90;96.80
4425;DHT22;2225;53.568;13.266;2022-12-29T02:11:13;11.80;96.80
4425;DHT22;2225;53.568;13.266;2022-12-29T02:13:40;11.80;96.90
4425;DHT22;2225;53.568;13.266;2022-12-29T02:16:34;11.80;97.00
4425;DHT22;2225;53.568;13.266;2022-12-29T02:22:47;11.80;97.10
4425;DHT22;2225;53.568;13.266;2022-12-29T02:25:57;11.80;97.10
4425;DHT22;2225;53.568;13.266;2022-12-29T02:31:29;11.70;97.20
4425;DHT22;2225;53.568;13.266;2022-12-29T02:37:13;11.70;97.20
4425;DHT22;2225;53.568;13.266;2022-12-29T02:39:57;11.80;97.20
4425;DHT22;2225;53.568;13.266;2022-12-29T02:42:59;11.80;97.20
4425;DHT22;2225;53.568;13.266;2022-12-29T02:48:40;11.70;97.20
4425;DHT22;2225;53.568;13.266;2022-12-29T02:51:18;11.80;97.30
4425;DHT22;2225;53.568;13.266;2022-12-29T02:53:51;11.70;97.20
4425;DHT22;2225;53.568;13.266;2022-12-29T02:56:37;11.80;97.20
4425;DHT22;2225;53.568;13.266;2022-12-29T02:59:05;11.70;97.20
4425;DHT22;2225;53.568;13.266;2022-12-29T03:11:01;11.80;97.20
4425;DHT22;2225;53.568;13.266;2022-12-29T03:13:47;11.80;97.20
4425;DHT22;2225;53.568;13.266;2022-12-29T03:16:47;11.80;97.10
4425;DHT22;2225;53.568;13.266;2022-12-29T03:19:35;11.80;97.10
4425;DHT22;2225;53.568;13.266;2022-12-29T03:22:05;11.80;97.10
4425;DHT22;2225;53.568;13.266;2022-12-29T03:25:20;11.80;97.10
4425;DHT22;2225;53.568;13.266;2022-12-29T03:27:54;11.80;97.10
4425;DHT22;2225;53.568;13.266;2022-12-29T03:30:26;11.80;97.10
4425;DHT22;2225;53.568;13.266;2022-12-29T03:33:00;11.90;97.10
4425;DHT22;2225;53.568;13.266;2022-12-29T03:35:34;11.90;97.00
4425;DHT22;2225;53.568;13.266;2022-12-29T03:41:08;11.90;96.90
4425;DHT22;2225;53.568;13.266;2022-12-29T03:43:37;11.90;96.90
4425;DHT22;2225;53.568;13.266;2022-12-29T03:46:04;11.90;96.80
4425;DHT22;2225;53.568;13.266;2022-12-29T03:48:31;11.90;96.70
4425;DHT22;2225;53.568;13.266;2022-12-29T03:51:00;11.90;96.70
4425;DHT22;2225;53.568;13.266;2022-12-29T03:53:27;11.90;96.70
4425;DHT22;2225;53.568;13.266;2022-12-29T03:55:54;11.90;96.70
4425;DHT22;2225;53.568;13.266;2022-12-29T03:58:21;11.90;96.70
4425;DHT22;2225;53.568;13.266;2022-12-29T04:01:00;11.90;96.70
4425;DHT22;2225;53.568;13.266;2022-12-29T04:03:29;12.00;96.70
4425;DHT22;2225;53.568;13.266;2022-12-29T04:05:56;12.00;96.60
4425;DHT22;2225;53.568;13.266;2022-12-29T04:08:24;12.00;96.60
4425;DHT22;2225;53.568;13.266;2022-12-29T04:10:51;12.00;96.50
4425;DHT22;2225;53.568;13.266;2022-12-29T04:13:20;12.00;96.60
4425;DHT22;2225;53.568;13.266;2022-12-29T04:15:47;12.00;96.60
4425;DHT22;2225;53.568;13.266;2022-12-29T04:18:14;12.00;96.60
4425;DHT22;2225;53.568;13.266;2022-12-29T04:20:44;12.10;96.70
4425;DHT22;2225;53.568;13.266;2022-12-29T04:23:28;12.10;96.70
4425;DHT22;2225;53.568;13.266;2022-12-29T04:25:59;12.10;96.70
4425;DHT22;2225;53.568;13.266;2022-12-29T04:28:28;12.10;96.70
4425;DHT22;2225;53.568;13.266;2022-12-29T04:31:14;12.20;96.80
4425;DHT22;2225;53.568;13.266;2022-12-29T04:33:43;12.20;96.70
4425;DHT22;2225;53.568;13.266;2022-12-29T04:36:10;12.20;96.70
4425;DHT22;2225;53.568;13.266;2022-12-29T04:38:37;12.20;96.60
4425;DHT22;2225;53.568;13.266;2022-12-29T04:41:05;12.30;96.60
4425;DHT22;2225;53.568;13.266;2022-12-29T04:43:34;12.30;96.50
4425;DHT22;2225;53.568;13.266;2022-12-29T04:46:07;12.40;96.50
4425;DHT22;2225;53.568;13.266;2022-12-29T04:48:46;12.40;96.40
4425;DHT22;2225;53.568;13.266;2022-12-29T04:51:34;12.40;96.30
4425;DHT22;2225;53.568;13.266;2022-12-29T04:54:01;12.40;96.20
4425;DHT22;2225;53.568;13.266;2022-12-29T04:56:29;12.40;96.20
4425;DHT22;2225;53.568;13.266;2022-12-29T04:58:57;12.40;96.10
4425;DHT22;2225;53.568;13.266;2022-12-29T05:01:24;12.40;96.10
4425;DHT22;2225;53.568;13.266;2022-12-29T05:03:51;12.40;96.00
4425;DHT22;2225;53.568;13.266;2022-12-29T05:06:19;12.40;96.10
4425;DHT22;2225;53.568;13.266;2022-12-29T05:08:45;12.40;96.10
4425;DHT22;2225;53.568;13.266;2022-12-29T05:11:13;12.40;96.00
4425;DHT22;2225;53.568;13.266;2022-12-29T05:13:45;12.50;96.10
4425;DHT22;2225;53.568;13.266;2022-12-29T05:16:14;12.50;96.00
4425;DHT22;2225;53.568;13.266;2022-12-29T05:18:41;12.50;96.00
4425;DHT22;2225;53.568;13.266;2022-12-29T05:21:08;12.50;96.00
4425;DHT22;2225;53.568;13.266;2022-12-29T05:23:37;12.50;95.90
4425;DHT22;2225;53.568;13.266;2022-12-29T05:26:05;12.50;95.90
4425;DHT22;2225;53.568;13.266;2022-12-29T05:28:51;12.50;95.90
4425;DHT22;2225;53.568;13.266;2022-12-29T05:31:19;12.50;95.80
4425;DHT22;2225;53.568;13.266;2022-12-29T05:33:47;12.60;95.90
4425;DHT22;2225;53.568;13.266;2022-12-29T05:36:14;12.60;95.80
4425;DHT22;2225;53.568;13.266;2022-12-29T05:38:48;12.60;95.80
4425;DHT22;2225;53.568;13.266;2022-12-29T05:41:16;12.60;95.80
4425;DHT22;2225;53.568;13.266;2022-12-29T05:43:59;12.60;95.70
4425;DHT22;2225;53.568;13.266;2022-12-29T05:46:30;12.70;95.70
4425;DHT22;2225;53.568;13.266;2022-12-29T05:49:08;12.60;95.60
4425;DHT22;2225;53.568;13.266;2022-12-29T05:51:51;12.60;95.70
4425;DHT22;2225;53.568;13.266;2022-12-29T05:54:18;12.60;95.70
4425;DHT22;2225;53.568;13.266;2022-12-29T05:56:45;12.60;95.60
4425;DHT22;2225;53.568;13.266;2022-12-29T05:59:12;12.70;95.60
4425;DHT22;2225;53.568;13.266;2022-12-29T06:01:40;12.70;95.70
4425;DHT22;2225;53.568;13.266;2022-12-29T06:04:07;12.70;95.70
4425;DHT22;2225;53.568;13.266;2022-12-29T06:06:34;12.60;95.80
4425;DHT22;2225;53.568;13.266;2022-12-29T06:09:02;12.70;95.90
4425;DHT22;2225;53.568;13.266;2022-12-29T06:11:30;12.70;95.80
4425;DHT22;2225;53.568;13.266;2022-12-29T06:13:58;12.70;95.90
4425;DHT22;2225;53.568;13.266;2022-12-29T06:16:25;12.70;95.80
4425;DHT22;2225;53.568;13.266;2022-12-29T06:18:56;12.70;95.90
4425;DHT22;2225;53.568;13.266;2022-12-29T06:21:23;12.80;95.90
4425;DHT22;2225;53.568;13.266;2022-12-29T06:23:50;12.80;96.20
4425;DHT22;2225;53.568;13.266;2022-12-29T06:26:17;12.80;96.00
4425;DHT22;2225;53.568;13.266;2022-12-29T06:28:47;12.80;96.10
4425;DHT22;2225;53.568;13.266;2022-12-29T06:31:15;12.80;96.20
4425;DHT22;2225;53.568;13.266;2022-12-29T06:33:42;12.80;96.20
4425;DHT22;2225;53.568;13.266;2022-12-29T06:36:15;12.90;96.30
4425;DHT22;2225;53.568;13.266;2022-12-29T06:38:43;12.80;96.20
4425;DHT22;2225;53.568;13.266;2022-12-29T06:41:10;12.90;96.30
4425;DHT22;2225;53.568;13.266;2022-12-29T06:43:57;12.80;96.20
4425;DHT22;2225;53.568;13.266;2022-12-29T06:46:49;12.90;96.20
4425;DHT22;2225;53.568;13.266;2022-12-29T06:49:17;12.80;96.20
4425;DHT22;2225;53.568;13.266;2022-12-29T06:51:44;12.90;96.20
4425;DHT22;2225;53.568;13.266;2022-12-29T06:54:11;12.90;96.20
4425;DHT22;2225;53.568;13.266;2022-12-29T06:56:37;12.90;96.30
4425;DHT22;2225;53.568;13.266;2022-12-29T06:59:04;12.90;96.40
4425;DHT22;2225;53.568;13.266;2022-12-29T07:01:31;12.90;96.40
4425;DHT22;2225;53.568;13.266;2022-12-29T07:03:58;12.90;96.40
4425;DHT22;2225;53.568;13.266;2022-12-29T07:06:25;12.90;96.40
4425;DHT22;2225;53.568;13.266;2022-12-29T07:08:52;12.90;96.50
4425;DHT22;2225;53.568;13.266;2022-12-29T07:11:21;12.90;96.50
4425;DHT22;2225;53.568;13.266;2022-12-29T07:13:48;12.80;96.50
4425;DHT22;2225;53.568;13.266;2022-12-29T07:16:15;12.90;96.50
4425;DHT22;2225;53.568;13.266;2022-12-29T07:18:42;12.90;96.50
4425;DHT22;2225;53.568;13.266;2022-12-29T07:21:09;12.90;96.50
4425;DHT22;2225;53.568;13.266;2022-12-29T07:23:36;12.90;96.50
4425;DHT22;2225;53.568;13.266;2022-12-29T07:26:06;12.90;96.50
4425;DHT22;2225;53.568;13.266;2022-12-29T07:28:35;13.00;96.40
4425;DHT22;2225;53.568;13.266;2022-12-29T07:31:02;13.00;96.30
4425;DHT22;2225;53.568;13.266;2022-12-29T07:33:29;12.90;96.20
4425;DHT22;2225;53.568;13.266;2022-12-29T07:35:57;12.90;96.20
4425;DHT22;2225;53.568;13.266;2022-12-29T07:38:24;12.90;96.10
4425;DHT22;2225;53.568;13.266;2022-12-29T07:40:51;12.90;96.10
4425;DHT22;2225;53.568;13.266;2022-12-29T07:43:18;12.90;96.10
4425;DHT22;2225;53.568;13.266;2022-12-29T07:46:20;12.90;96.10
4425;DHT22;2225;53.568;13.266;2022-12-29T07:49:07;12.90;96.20
4425;DHT22;2225;53.568;13.266;2022-12-29T07:51:34;12.90;96.30
4425;DHT22;2225;53.568;13.266;2022-12-29T07:54:01;12.90;96.30
4425;DHT22;2225;53.568;13.266;2022-12-29T07:56:28;12.90;96.30
4425;DHT22;2225;53.568;13.266;2022-12-29T07:58:54;12.90;96.30
4425;DHT22;2225;53.568;13.266;2022-12-29T08:01:21;12.90;96.30
4425;DHT22;2225;53.568;13.266;2022-12-29T08:03:50;13.00;96.30
4425;DHT22;2225;53.568;13.266;2022-12-29T08:06:22;13.00;96.20
4425;DHT22;2225;53.568;13.266;2022-12-29T08:08:49;13.00;96.10
4425;DHT22;2225;53.568;13.266;2022-12-29T08:11:16;13.10;96.20
4425;DHT22;2225;53.568;13.266;2022-12-29T08:13:43;13.10;96.10
4425;DHT22;2225;53.568;13.266;2022-12-29T08:16:10;13.10;96.00
4425;DHT22;2225;53.568;13.266;2022-12-29T08:18:37;13.20;95.90
4425;DHT22;2225;53.568;13.266;2022-12-29T08:21:04;13.20;95.80
4425;DHT22;2225;53.568;13.266;2022-12-29T08:23:31;13.20;95.80
4425;DHT22;2225;53.568;13.266;2022-12-29T08:26:03;13.30;95.90
4425;DHT22;2225;53.568;13.266;2022-12-29T08:28:32;13.30;95.80
4425;DHT22;2225;53.568;13.266;2022-12-29T08:31:01;13.30;95.60
4425;DHT22;2225;53.568;13.266;2022-12-29T08:33:29;13.30;95.60
4425;DHT22;2225;53.568;13.266;2022-12-29T08:36:03;13.40;95.60
4425;DHT22;2225;53.568;13.266;2022-12-29T08:38:32;13.40;95.40
4425;DHT22;2225;53.568;13.266;2022-12-29T08:40:59;13.40;95.40
4425;DHT22;2225;53.568;13.266;2022-12-29T08:43:28;13.50;95.40
4425;DHT22;2225;53.568;13.266;2022-12-29T08:45:57;13.50;95.40
4425;DHT22;2225;53.568;13.266;2022-12-29T08:48:25;13.50;95.40
4425;DHT22;2225;53.568;13.266;2022-12-29T08:50:53;13.60;95.40
4425;DHT22;2225;53.568;13.266;2022-12-29T08:53:20;13.60;95.30
4425;DHT22;2225;53.568;13.266;2022-12-29T08:55:54;13.70;95.30
4425;DHT22;2225;53.568;13.266;2022-12-29T08:58:31;13.70;95.20
4425;DHT22;2225;53.568;13.266;2022-12-29T09:00:59;13.70;95.10
4425;DHT22;2225;53.568;13.266;2022-12-29T09:03:26;13.70;95.00
4425;DHT22;2225;53.568;13.266;2022-12-29T09:06:14;13.70;95.10
4425;DHT22;2225;53.568;13.266;2022-12-29T09:08:42;13.80;95.10
4425;DHT22;2225;53.568;13.266;2022-12-29T09:11:21;13.80;95.00
4425;DHT22;2225;53.568;13.266;2022-12-29T09:13:50;13.80;95.00
4425;DHT22;2225;53.568;13.266;2022-12-29T09:16:17;13.80;95.00
4425;DHT22;2225;53.568;13.266;2022-12-29T09:18:45;13.80;95.10
4425;DHT22;2225;53.568;13.266;2022-12-29T09:21:12;13.80;95.10
4425;DHT22;2225;53.568;13.266;2022-12-29T09:23:39;13.80;95.10
4425;DHT22;2225;53.568;13.266;2022-12-29T09:26:07;13.90;95.20
4425;DHT22;2225;53.568;13.266;2022-12-29T09:28:34;13.90;95.30
4425;DHT22;2225;53.568;13.266;2022-12-29T09:31:02;13.90;95.30
4425;DHT22;2225;53.568;13.266;2022-12-29T09:33:29;13.90;95.30
4425;DHT22;2225;53.568;13.266;2022-12-29T09:35:57;13.90;95.30
4425;DHT22;2225;53.568;13.266;2022-12-29T09:38:25;13.90;95.40
4425;DHT22;2225;53.568;13.266;2022-12-29T09:41:06;13.90;95.50
4425;DHT22;2225;53.568;13.266;2022-12-29T09:46:39;14.10;95.50
4425;DHT22;2225;53.568;13.266;2022-12-29T09:49:28;14.10;95.40
4425;DHT22;2225;53.568;13.266;2022-12-29T09:52:15;14.20;95.30
4425;DHT22;2225;53.568;13.266;2022-12-29T09:54:58;14.20;95.70
4425;DHT22;2225;53.568;13.266;2022-12-29T09:57:56;14.30;95.40
4425;DHT22;2225;53.568;13.266;2022-12-29T10:03:24;14.30;95.30
4425;DHT22;2225;53.568;13.266;2022-12-29T10:06:08;14.30;95.30
4425;DHT22;2225;53.568;13.266;2022-12-29T10:08:49;14.30;95.30
4425;DHT22;2225;53.568;13.266;2022-12-29T10:12:02;14.20;95.30
4425;DHT22;2225;53.568;13.266;2022-12-29T10:15:13;14.10;95.80
4425;DHT22;2225;53.568;13.266;2022-12-29T10:20:54;14.00;95.60
4425;DHT22;2225;53.568;13.266;2022-12-29T10:23:42;14.00;95.60
4425;DHT22;2225;53.568;13.266;2022-12-29T10:26:18;14.00;95.60
4425;DHT22;2225;53.568;13.266;2022-12-29T10:29:05;14.00;95.50
4425;DHT22;2225;53.568;13.266;2022-12-29T10:31:44;14.10;95.00
4425;DHT22;2225;53.568;13.266;2022-12-29T10:34:29;14.10;94.70
4425;DHT22;2225;53.568;13.266;2022-12-29T10:37:14;14.10;94.50
4425;DHT22;2225;53.568;13.266;2022-12-29T10:39:55;14.10;94.30
4425;DHT22;2225;53.568;13.266;2022-12-29T10:42:36;14.10;94.40
4425;DHT22;2225;53.568;13.266;2022-12-29T10:45:14;14.00;94.20
4425;DHT22;2225;53.568;13.266;2022-12-29T10:47:52;14.00;93.90
4425;DHT22;2225;53.568;13.266;2022-12-29T10:50:22;14.00;93.80
4425;DHT22;2225;53.568;13.266;2022-12-29T10:52:50;14.00;94.20
4425;DHT22;2225;53.568;13.266;2022-12-29T10:55:22;14.00;94.10
4425;DHT22;2225;53.568;13.266;2022-12-29T10:57:55;14.10;94.40
4425;DHT22;2225;53.568;13.266;2022-12-29T11:00:23;14.00;94.40
4425;DHT22;2225;53.568;13.266;2022-12-29T11:03:11;14.10;94.50
4425;DHT22;2225;53.568;13.266;2022-12-29T11:06:11;14.10;94.40
4425;DHT22;2225;53.568;13.266;2022-12-29T11:08:55;14.20;94.50
4425;DHT22;2225;53.568;13.266;2022-12-29T11:11:33;14.10;94.60
4425;DHT22;2225;53.568;13.266;2022-12-29T11:14:17;14.10;94.60
4425;DHT22;2225;53.568;13.266;2022-12-29T11:17:00;14.10;94.60
4425;DHT22;2225;53.568;13.266;2022-12-29T11:19:30;14.00;94.50
4425;DHT22;2225;53.568;13.266;2022-12-29T11:22:26;14.00;94.70
4425;DHT22;2225;53.568;13.266;2022-12-29T11:25:05;14.10;94.60
4425;DHT22;2225;53.568;13.266;2022-12-29T11:27:36;14.10;94.70
4425;DHT22;2225;53.568;13.266;2022-12-29T11:30:26;14.10;94.80
4425;DHT22;2225;53.568;13.266;2022-12-29T11:32:55;14.10;94.90
4425;DHT22;2225;53.568;13.266;2022-12-29T11:38:22;14.10;94.70
4425;DHT22;2225;53.568;13.266;2022-12-29T11:40:51;14.20;94.70
4425;DHT22;2225;53.568;13.266;2022-12-29T11:43:36;14.10;94.70
4425;DHT22;2225;53.568;13.266;2022-12-29T11:46:05;14.10;94.70
4425;DHT22;2225;53.568;13.266;2022-12-29T11:48:39;14.00;94.70
4425;DHT22;2225;53.568;13.266;2022-12-29T11:51:07;14.00;94.80
4425;DHT22;2225;53.568;13.266;2022-12-29T11:53:49;14.00;94.70
4425;DHT22;2225;53.568;13.266;2022-12-29T11:56:30;14.00;94.40
4425;DHT22;2225;53.568;13.266;2022-12-29T11:59:39;13.90;94.20
4425;DHT22;2225;53.568;13.266;2022-12-29T12:02:40;14.00;94.20
4425;DHT22;2225;53.568;13.266;2022-12-29T12:08:02;14.00;93.60
4425;DHT22;2225;53.568;13.266;2022-12-29T12:10:39;14.00;93.40
4425;DHT22;2225;53.568;13.266;2022-12-29T12:13:41;14.00;93.30
4425;DHT22;2225;53.568;13.266;2022-12-29T12:16:21;14.00;93.20
4425;DHT22;2225;53.568;13.266;2022-12-29T12:18:56;14.10;93.40
4425;DHT22;2225;53.568;13.266;2022-12-29T12:21:41;14.00;92.70
4425;DHT22;2225;53.568;13.266;2022-12-29T12:27:15;14.10;92.60
4425;DHT22;2225;53.568;13.266;2022-12-29T12:29:56;14.10;92.50
4425;DHT22;2225;53.568;13.266;2022-12-29T12:35:33;14.10;92.20
4425;DHT22;2225;53.568;13.266;2022-12-29T12:38:21;14.10;92.30
4425;DHT22;2225;53.568;13.266;2022-12-29T12:41:35;14.10;92.30
4425;DHT22;2225;53.568;13.266;2022-12-29T12:44:22;14.00;91.90
4425;DHT22;2225;53.568;13.266;2022-12-29T12:47:23;14.00;91.90
4425;DHT22;2225;53.568;13.266;2022-12-29T12:50:20;14.00;91.90
4425;DHT22;2225;53.568;13.266;2022-12-29T12:53:13;14.00;91.70
4425;DHT22;2225;53.568;13.266;2022-12-29T12:58:52;14.10;91.90
4425;DHT22;2225;53.568;13.266;2022-12-29T13:07:50;14.10;91.40
4425;DHT22;2225;53.568;13.266;2022-12-29T13:10:36;14.10;91.60
4425;DHT22;2225;53.568;13.266;2022-12-29T13:16:49;14.20;91.40
4425;DHT22;2225;53.568;13.266;2022-12-29T13:19:56;14.20;91.50
4425;DHT22;2225;53.568;13.266;2022-12-29T13:23:03;14.30;91.30
4425;DHT22;2225;53.568;13.266;2022-12-29T13:25:42;14.30;91.30
4425;DHT22;2225;53.568;13.266;2022-12-29T13:28:29;14.30;91.20
4425;DHT22;2225;53.568;13.266;2022-12-29T13:31:19;14.40;91.00
4425;DHT22;2225;53.568;13.266;2022-12-29T13:34:00;14.40;90.80
4425;DHT22;2225;53.568;13.266;2022-12-29T13:37:32;14.40;91.00
4425;DHT22;2225;53.568;13.266;2022-12-29T13:39:43;14.40;91.20
4425;DHT22;2225;53.568;13.266;2022-12-29T13:42:16;14.50;91.10
4425;DHT22;2225;53.568;13.266;2022-12-29T13:44:53;14.40;91.00
4425;DHT22;2225;53.568;13.266;2022-12-29T13:47:48;14.40;91.00
4425;DHT22;2225;53.568;13.266;2022-12-29T13:50:21;14.40;91.00
4425;DHT22;2225;53.568;13.266;2022-12-29T13:56:05;14.30;91.40
4425;DHT22;2225;53.568;13.266;2022-12-29T13:58:50;14.30;91.40
4425;DHT22;2225;53.568;13.266;2022-12-29T14:01:28;14.30;91.50
4425;DHT22;2225;53.568;13.266;2022-12-29T14:04:03;14.20;91.50
4425;DHT22;2225;53.568;13.266;2022-12-29T14:06:38;14.20;91.70
4425;DHT22;2225;53.568;13.266;2022-12-29T14:12:38;14.20;91.70
4425;DHT22;2225;53.568;13.266;2022-12-29T14:17:43;14.20;91.80
4425;DHT22;2225;53.568;13.266;2022-12-29T14:20:19;14.20;91.80
4425;DHT22;2225;53.568;13.266;2022-12-29T14:23:15;14.20;91.80
4425;DHT22;2225;53.568;13.266;2022-12-29T14:25:58;14.20;92.10
4425;DHT22;2225;53.568;13.266;2022-12-29T14:28:35;14.20;91.80
4425;DHT22;2225;53.568;13.266;2022-12-29T14:36:57;14.00;91.80
4425;DHT22;2225;53.568;13.266;2022-12-29T14:39:30;14.00;91.90
4425;DHT22;2225;53.568;13.266;2022-12-29T14:44:48;13.90;91.70
4425;DHT22;2225;53.568;13.266;2022-12-29T14:47:34;14.00;91.80
4425;DHT22;2225;53.568;13.266;2022-12-29T14:52:57;14.00;91.80
4425;DHT22;2225;53.568;13.266;2022-12-29T14:55:41;14.00;91.80
4425;DHT22;2225;53.568;13.266;2022-12-29T14:58:32;14.10;91.60
4425;DHT22;2225;53.568;13.266;2022-12-29T15:01:19;14.10;91.50
4425;DHT22;2225;53.568;13.266;2022-12-29T15:03:53;14.10;91.50
4425;DHT22;2225;53.568;13.266;2022-12-29T15:06:25;14.20;91.50
4425;DHT22;2225;53.568;13.266;2022-12-29T15:09:06;14.20;91.50
4425;DHT22;2225;53.568;13.266;2022-12-29T15:11:47;14.20;91.30
4425;DHT22;2225;53.568;13.266;2022-12-29T15:14:35;14.20;91.30
4425;DHT22;2225;53.568;13.266;2022-12-29T15:17:21;14.20;91.30
4425;DHT22;2225;53.568;13.266;2022-12-29T15:19:51;14.30;91.20
4425;DHT22;2225;53.568;13.266;2022-12-29T15:22:18;14.30;91.30
4425;DHT22;2225;53.568;13.266;2022-12-29T15:24:45;14.30;91.20
4425;DHT22;2225;53.568;13.266;2022-12-29T15:27:20;14.30;90.90
4425;DHT22;2225;53.568;13.266;2022-12-29T15:29:59;14.30;90.90
4425;DHT22;2225;53.568;13.266;2022-12-29T15:32:38;14.30;90.80
4425;DHT22;2225;53.568;13.266;2022-12-29T15:37:54;14.40;90.70
4425;DHT22;2225;53.568;13.266;2022-12-29T15:40:27;14.40;90.80
4425;DHT22;2225;53.568;13.266;2022-12-29T15:43:26;14.40;90.90
4425;DHT22;2225;53.568;13.266;2022-12-29T15:46:01;14.40;90.80
4425;DHT22;2225;53.568;13.266;2022-12-29T15:48:28;14.30;91.00
4425;DHT22;2225;53.568;13.266;2022-12-29T15:50:57;14.30;91.20
4425;DHT22;2225;53.568;13.266;2022-12-29T15:53:28;14.30;91.40
4425;DHT22;2225;53.568;13.266;2022-12-29T15:56:01;14.30;91.60
4425;DHT22;2225;53.568;13.266;2022-12-29T15:58:41;14.30;91.70
4425;DHT22;2225;53.568;13.266;2022-12-29T16:01:40;14.30;91.80
4425;DHT22;2225;53.568;13.266;2022-12-29T16:04:07;14.30;91.90
4425;DHT22;2225;53.568;13.266;2022-12-29T16:06:44;14.20;92.00
4425;DHT22;2225;53.568;13.266;2022-12-29T16:09:36;14.20;92.00
4425;DHT22;2225;53.568;13.266;2022-12-29T16:12:24;14.10;92.10
4425;DHT22;2225;53.568;13.266;2022-12-29T16:14:56;14.10;92.20
4425;DHT22;2225;53.568;13.266;2022-12-29T16:17:34;14.10;92.20
4425;DHT22;2225;53.568;13.266;2022-12-29T16:20:19;14.10;92.30
4425;DHT22;2225;53.568;13.266;2022-12-29T16:22:51;14.00;92.40
4425;DHT22;2225;53.568;13.266;2022-12-29T16:25:27;14.00;92.50
4425;DHT22;2225;53.568;13.266;2022-12-29T16:27:55;14.00;92.60
4425;DHT22;2225;53.568;13.266;2022-12-29T16:30:25;14.00;92.60
4425;DHT22;2225;53.568;13.266;2022-12-29T16:33:01;13.90;92.60
4425;DHT22;2225;53.568;13.266;2022-12-29T16:35:44;13.90;92.70
4425;DHT22;2225;53.568;13.266;2022-12-29T16:38:20;13.90;92.80
4425;DHT22;2225;53.568;13.266;2022-12-29T16:40:54;13.80;92.80
4425;DHT22;2225;53.568;13.266;2022-12-29T16:43:27;13.80;92.80
4425;DHT22;2225;53.568;13.266;2022-12-29T16:48:31;13.80;92.90
4425;DHT22;2225;53.568;13.266;2022-12-29T16:51:13;13.80;92.90
4425;DHT22;2225;53.568;13.266;2022-12-29T16:53:49;13.80;92.90
4425;DHT22;2225;53.568;13.266;2022-12-29T16:56:21;13.80;92.90
4425;DHT22;2225;53.568;13.266;2022-12-29T16:58:53;13.80;92.90
4425;DHT22;2225;53.568;13.266;2022-12-29T17:01:29;13.80;92.80
4425;DHT22;2225;53.568;13.266;2022-12-29T17:04:00;13.80;92.70
4425;DHT22;2225;53.568;13.266;2022-12-29T17:06:27;13.80;92.60
4425;DHT22;2225;53.568;13.266;2022-12-29T17:08:54;13.80;92.60
4425;DHT22;2225;53.568;13.266;2022-12-29T17:11:28;13.70;92.60
4425;DHT22;2225;53.568;13.266;2022-12-29T17:17:30;13.70;92.50
4425;DHT22;2225;53.568;13.266;2022-12-29T17:20:20;13.70;92.50
4425;DHT22;2225;53.568;13.266;2022-12-29T17:22:48;13.70;92.50
4425;DHT22;2225;53.568;13.266;2022-12-29T17:25:18;13.70;92.50
4425;DHT22;2225;53.568;13.266;2022-12-29T17:27:55;13.70;92.40
4425;DHT22;2225;53.568;13.266;2022-12-29T17:30:27;13.70;92.30
4425;DHT22;2225;53.568;13.266;2022-12-29T17:33:09;13.70;92.40
4425;DHT22;2225;53.568;13.266;2022-12-29T17:35:39;13.70;92.30
4425;DHT22;2225;53.568;13.266;2022-12-29T17:38:30;13.60;92.20
4425;DHT22;2225;53.568;13.266;2022-12-29T17:40:59;13.60;92.20
4425;DHT22;2225;53.568;13.266;2022-12-29T17:43:26;13.60;92.30
4425;DHT22;2225;53.568;13.266;2022-12-29T17:46:05;13.60;92.40
4425;DHT22;2225;53.568;13.266;2022-12-29T17:48:33;13.50;92.40
4425;DHT22;2225;53.568;13.266;2022-12-29T17:51:00;13.50;92.50
4425;DHT22;2225;53.568;13.266;2022-12-29T17:53:28;13.50;92.50
4425;DHT22;2225;53.568;13.266;2022-12-29T17:55:56;13.50;92.60
4425;DHT22;2225;53.568;13.266;2022-12-29T17:58:25;13.50;92.60
4425;DHT22;2225;53.568;13.266;2022-12-29T18:00:56;13.50;92.60
4425;DHT22;2225;53.568;13.266;2022-12-29T18:03:30;13.40;92.60